sensor_id;sensor_type;location;lat;lon;timestamp;temperature;humidity
2465;DHT22;1244;54.326;10.074;2022-08-14T00:00:49;22.80;99.90
2465;DHT22;1244;54.326;10.074;2022-08-14T00:03:31;22.60;99.90
2465;DHT22;1244;54.326;10.074;2022-08-14T00:05:59;22.60;99.90
2465;DHT22;1244;54.326;10.074;2022-08-14T00:08:25;22.60;99.90
2465;DHT22;1244;54.326;10.074;2022-08-14T00:10:51;22.50;99.90
2465;DHT22;1244;54.326;10.074;2022-08-14T00:13:18;22.50;99.90
2465;DHT22;1244;54.326;10.074;2022-08-14T00:15:46;22.60;99.90
2465;DHT22;1244;54.326;10.074;2022-08-14T00:18:19;22.50;99.90
2465;DHT22;1244;54.326;10.074;2022-08-14T00:20:46;22.40;99.90
2465;DHT22;1244;54.326;10.074;2022-08-14T00:23:14;22.30;99.90
2465;DHT22;1244;54.326;10.074;2022-08-14T00:25:41;22.30;99.90
2465;DHT22;1244;54.326;10.074;2022-08-14T00:28:09;22.20;99.90
2465;DHT22;1244;54.326;10.074;2022-08-14T00:30:35;22.10;99.90
2465;DHT22;1244;54.326;10.074;2022-08-14T00:33:01;22.30;99.90
2465;DHT22;1244;54.326;10.074;2022-08-14T00:35:26;22.40;99.90
2465;DHT22;1244;54.326;10.074;2022-08-14T00:37:52;22.20;99.90
2465;DHT22;1244;54.326;10.074;2022-08-14T00:40:19;22.10;99.90
2465;DHT22;1244;54.326;10.074;2022-08-14T00:42:46;22.00;99.90
2465;DHT22;1244;54.326;10.074;2022-08-14T00:45:13;21.80;99.90
2465;DHT22;1244;54.326;10.074;2022-08-14T00:47:40;21.70;99.90
2465;DHT22;1244;54.326;10.074;2022-08-14T00:50:07;21.70;99.90
2465;DHT22;1244;54.326;10.074;2022-08-14T00:52:33;21.70;99.90
2465;DHT22;1244;54.326;10.074;2022-08-14T00:54:59;21.60;99.90
2465;DHT22;1244;54.326;10.074;2022-08-14T00:57:28;21.60;99.90
2465;DHT22;1244;54.326;10.074;2022-08-14T00:59:54;21.50;99.90
2465;DHT22;1244;54.326;10.074;2022-08-14T01:02:21;21.30;99.90
2465;DHT22;1244;54.326;10.074;2022-08-14T01:04:52;21.10;99.90
2465;DHT22;1244;54.326;10.074;2022-08-14T01:07:19;21.10;99.90
2465;DHT22;1244;54.326;10.074;2022-08-14T01:09:47;21.10;99.90
2465;DHT22;1244;54.326;10.074;2022-08-14T01:12:15;21.10;99.90
2465;DHT22;1244;54.326;10.074;2022-08-14T01:14:41;21.00;99.90
2465;DHT22;1244;54.326;10.074;2022-08-14T01:17:06;21.00;99.90
2465;DHT22;1244;54.326;10.074;2022-08-14T01:19:32;20.90;99.90
2465;DHT22;1244;54.326;10.074;2022-08-14T01:22:16;20.70;99.90
2465;DHT22;1244;54.326;10.074;2022-08-14T01:24:42;20.70;99.90
2465;DHT22;1244;54.326;10.074;2022-08-14T01:27:17;20.50;99.90
2465;DHT22;1244;54.326;10.074;2022-08-14T01:29:44;20.50;99.90
2465;DHT22;1244;54.326;10.074;2022-08-14T01:32:11;20.40;99.90
2465;DHT22;1244;54.326;10.074;2022-08-14T01:34:37;20.40;99.90
2465;DHT22;1244;54.326;10.074;2022-08-14T01:37:02;20.30;99.90
2465;DHT22;1244;54.326;10.074;2022-08-14T01:39:29;20.30;99.90
2465;DHT22;1244;54.326;10.074;2022-08-14T01:41:54;20.20;99.90
2465;DHT22;1244;54.326;10.074;2022-08-14T01:44:23;20.20;99.90
2465;DHT22;1244;54.326;10.074;2022-08-14T01:46:50;20.10;99.90
2465;DHT22;1244;54.326;10.074;2022-08-14T01:49:18;20.20;99.90
2465;DHT22;1244;54.326;10.074;2022-08-14T01:51:44;20.30;99.90
2465;DHT22;1244;54.326;10.074;2022-08-14T01:54:13;20.30;99.90
2465;DHT22;1244;54.326;10.074;2022-08-14T01:56:39;20.30;99.90
2465;DHT22;1244;54.326;10.074;2022-08-14T01:59:19;20.30;99.90
2465;DHT22;1244;54.326;10.074;2022-08-14T02:01:47;20.30;99.90
2465;DHT22;1244;54.326;10.074;2022-08-14T02:04:13;20.30;99.90
2465;DHT22;1244;54.326;10.074;2022-08-14T02:06:39;20.20;99.90
2465;DHT22;1244;54.326;10.074;2022-08-14T02:09:07;20.10;99.90
2465;DHT22;1244;54.326;10.074;2022-08-14T02:11:32;20.10;99.90
2465;DHT22;1244;54.326;10.074;2022-08-14T02:14:00;20.10;99.90
2465;DHT22;1244;54.326;10.074;2022-08-14T02:16:30;20.10;99.90
2465;DHT22;1244;54.326;10.074;2022-08-14T02:19:00;20.10;99.90
2465;DHT22;1244;54.326;10.074;2022-08-14T02:21:28;20.00;99.90
2465;DHT22;1244;54.326;10.074;2022-08-14T02:23:57;20.00;99.90
2465;DHT22;1244;54.326;10.074;2022-08-14T02:26:26;20.00;99.90
2465;DHT22;1244;54.326;10.074;2022-08-14T02:28:55;20.00;99.90
2465;DHT22;1244;54.326;10.074;2022-08-14T02:31:25;19.90;99.90
2465;DHT22;1244;54.326;10.074;2022-08-14T02:33:53;19.70;99.90
2465;DHT22;1244;54.326;10.074;2022-08-14T02:36:19;19.80;99.90
2465;DHT22;1244;54.326;10.074;2022-08-14T02:38:44;19.80;99.90
2465;DHT22;1244;54.326;10.074;2022-08-14T02:41:11;19.90;99.90
2465;DHT22;1244;54.326;10.074;2022-08-14T02:43:38;19.80;99.90
2465;DHT22;1244;54.326;10.074;2022-08-14T02:46:05;19.80;99.90
2465;DHT22;1244;54.326;10.074;2022-08-14T02:48:34;19.90;99.90
2465;DHT22;1244;54.326;10.074;2022-08-14T02:51:05;19.90;99.90
2465;DHT22;1244;54.326;10.074;2022-08-14T02:53:32;19.90;99.90
2465;DHT22;1244;54.326;10.074;2022-08-14T02:55:59;19.90;99.90
2465;DHT22;1244;54.326;10.074;2022-08-14T02:58:25;19.90;99.90
2465;DHT22;1244;54.326;10.074;2022-08-14T03:00:51;20.10;99.90
2465;DHT22;1244;54.326;10.074;2022-08-14T03:03:17;20.20;99.90
2465;DHT22;1244;54.326;10.074;2022-08-14T03:05:42;20.20;99.90
2465;DHT22;1244;54.326;10.074;2022-08-14T03:08:11;20.30;99.90
2465;DHT22;1244;54.326;10.074;2022-08-14T03:10:37;20.30;99.90
2465;DHT22;1244;54.326;10.074;2022-08-14T03:13:03;20.30;99.90
2465;DHT22;1244;54.326;10.074;2022-08-14T03:15:32;20.30;99.90
2465;DHT22;1244;54.326;10.074;2022-08-14T03:18:12;20.30;99.90
2465;DHT22;1244;54.326;10.074;2022-08-14T03:20:39;20.20;99.90
2465;DHT22;1244;54.326;10.074;2022-08-14T03:23:05;20.20;99.90
2465;DHT22;1244;54.326;10.074;2022-08-14T03:25:31;20.10;99.90
2465;DHT22;1244;54.326;10.074;2022-08-14T03:28:00;20.10;99.90
2465;DHT22;1244;54.326;10.074;2022-08-14T03:30:28;20.00;99.90
2465;DHT22;1244;54.326;10.074;2022-08-14T03:32:54;20.00;99.90
2465;DHT22;1244;54.326;10.074;2022-08-14T03:35:20;20.00;99.90
2465;DHT22;1244;54.326;10.074;2022-08-14T03:37:46;19.80;99.90
2465;DHT22;1244;54.326;10.074;2022-08-14T03:40:11;19.80;99.90
2465;DHT22;1244;54.326;10.074;2022-08-14T03:42:37;19.70;99.90
2465;DHT22;1244;54.326;10.074;2022-08-14T03:45:04;19.80;99.90
2465;DHT22;1244;54.326;10.074;2022-08-14T03:47:32;19.80;99.90
2465;DHT22;1244;54.326;10.074;2022-08-14T03:50:01;19.80;99.90
2465;DHT22;1244;54.326;10.074;2022-08-14T03:52:26;19.70;99.90
2465;DHT22;1244;54.326;10.074;2022-08-14T03:54:52;19.80;99.90
2465;DHT22;1244;54.326;10.074;2022-08-14T03:57:17;19.90;99.90
2465;DHT22;1244;54.326;10.074;2022-08-14T03:59:43;19.70;99.90
2465;DHT22;1244;54.326;10.074;2022-08-14T04:02:08;19.70;99.90
2465;DHT22;1244;54.326;10.074;2022-08-14T04:04:34;19.70;99.90
2465;DHT22;1244;54.326;10.074;2022-08-14T04:06:59;19.70;99.90
2465;DHT22;1244;54.326;10.074;2022-08-14T04:09:26;19.70;99.90
2465;DHT22;1244;54.326;10.074;2022-08-14T04:11:51;19.80;99.90
2465;DHT22;1244;54.326;10.074;2022-08-14T04:14:17;19.80;99.90
2465;DHT22;1244;54.326;10.074;2022-08-14T04:16:42;19.80;99.90
2465;DHT22;1244;54.326;10.074;2022-08-14T04:19:10;19.70;99.90
2465;DHT22;1244;54.326;10.074;2022-08-14T04:21:36;19.80;99.90
2465;DHT22;1244;54.326;10.074;2022-08-14T04:24:01;19.80;99.90
2465;DHT22;1244;54.326;10.074;2022-08-14T04:26:29;19.80;99.90
2465;DHT22;1244;54.326;10.074;2022-08-14T04:28:55;19.90;99.90
2465;DHT22;1244;54.326;10.074;2022-08-14T04:31:22;20.00;99.90
2465;DHT22;1244;54.326;10.074;2022-08-14T04:33:48;20.00;99.90
2465;DHT22;1244;54.326;10.074;2022-08-14T04:36:13;20.00;99.90
2465;DHT22;1244;54.326;10.074;2022-08-14T04:38:39;20.00;99.90
2465;DHT22;1244;54.326;10.074;2022-08-14T04:41:23;20.10;99.90
2465;DHT22;1244;54.326;10.074;2022-08-14T04:44:07;20.10;99.90
2465;DHT22;1244;54.326;10.074;2022-08-14T04:46:33;20.10;99.90
2465;DHT22;1244;54.326;10.074;2022-08-14T04:48:59;20.10;99.90
2465;DHT22;1244;54.326;10.074;2022-08-14T04:51:26;20.20;99.90
2465;DHT22;1244;54.326;10.074;2022-08-14T04:53:53;20.30;99.90
2465;DHT22;1244;54.326;10.074;2022-08-14T04:56:21;20.30;99.90
2465;DHT22;1244;54.326;10.074;2022-08-14T04:58:49;20.30;99.90
2465;DHT22;1244;54.326;10.074;2022-08-14T05:01:16;20.30;99.90
2465;DHT22;1244;54.326;10.074;2022-08-14T05:03:42;20.40;99.90
2465;DHT22;1244;54.326;10.074;2022-08-14T05:06:10;20.40;99.90
2465;DHT22;1244;54.326;10.074;2022-08-14T05:08:37;20.50;99.90
2465;DHT22;1244;54.326;10.074;2022-08-14T05:11:06;20.40;99.90
2465;DHT22;1244;54.326;10.074;2022-08-14T05:13:33;20.50;99.90
2465;DHT22;1244;54.326;10.074;2022-08-14T05:16:00;20.50;99.90
2465;DHT22;1244;54.326;10.074;2022-08-14T05:18:33;20.50;99.90
2465;DHT22;1244;54.326;10.074;2022-08-14T05:21:00;20.60;99.90
2465;DHT22;1244;54.326;10.074;2022-08-14T05:23:28;20.70;99.90
2465;DHT22;1244;54.326;10.074;2022-08-14T05:25:56;20.70;99.90
2465;DHT22;1244;54.326;10.074;2022-08-14T05:28:27;20.70;99.90
2465;DHT22;1244;54.326;10.074;2022-08-14T05:30:55;20.80;99.90
2465;DHT22;1244;54.326;10.074;2022-08-14T05:33:23;20.80;99.90
2465;DHT22;1244;54.326;10.074;2022-08-14T05:35:50;20.90;99.90
2465;DHT22;1244;54.326;10.074;2022-08-14T05:38:21;20.90;99.90
2465;DHT22;1244;54.326;10.074;2022-08-14T05:40:47;21.00;99.90
2465;DHT22;1244;54.326;10.074;2022-08-14T05:43:14;21.10;99.90
2465;DHT22;1244;54.326;10.074;2022-08-14T05:45:40;21.10;99.90
2465;DHT22;1244;54.326;10.074;2022-08-14T05:48:11;21.20;99.90
2465;DHT22;1244;54.326;10.074;2022-08-14T05:50:37;21.30;99.90
2465;DHT22;1244;54.326;10.074;2022-08-14T05:53:03;21.30;99.90
2465;DHT22;1244;54.326;10.074;2022-08-14T05:55:29;21.40;99.90
2465;DHT22;1244;54.326;10.074;2022-08-14T05:58:05;21.40;99.90
2465;DHT22;1244;54.326;10.074;2022-08-14T06:00:37;21.40;99.90
2465;DHT22;1244;54.326;10.074;2022-08-14T06:03:05;21.40;99.90
2465;DHT22;1244;54.326;10.074;2022-08-14T06:05:31;21.50;99.90
2465;DHT22;1244;54.326;10.074;2022-08-14T06:07:57;21.60;99.90
2465;DHT22;1244;54.326;10.074;2022-08-14T06:10:24;21.60;99.90
2465;DHT22;1244;54.326;10.074;2022-08-14T06:12:50;21.70;99.90
2465;DHT22;1244;54.326;10.074;2022-08-14T06:15:16;21.80;99.90
2465;DHT22;1244;54.326;10.074;2022-08-14T06:17:46;21.80;99.90
2465;DHT22;1244;54.326;10.074;2022-08-14T06:20:13;21.90;99.90
2465;DHT22;1244;54.326;10.074;2022-08-14T06:22:40;21.90;99.90
2465;DHT22;1244;54.326;10.074;2022-08-14T06:25:06;22.00;99.90
2465;DHT22;1244;54.326;10.074;2022-08-14T06:27:41;22.10;99.90
2465;DHT22;1244;54.326;10.074;2022-08-14T06:30:10;22.10;99.90
2465;DHT22;1244;54.326;10.074;2022-08-14T06:32:36;22.30;99.90
2465;DHT22;1244;54.326;10.074;2022-08-14T06:35:06;22.40;99.90
2465;DHT22;1244;54.326;10.074;2022-08-14T06:37:49;22.50;99.90
2465;DHT22;1244;54.326;10.074;2022-08-14T06:40:17;22.60;99.90
2465;DHT22;1244;54.326;10.074;2022-08-14T06:42:44;22.60;99.90
2465;DHT22;1244;54.326;10.074;2022-08-14T06:45:10;22.70;99.90
2465;DHT22;1244;54.326;10.074;2022-08-14T06:47:37;22.70;99.90
2465;DHT22;1244;54.326;10.074;2022-08-14T06:50:08;22.80;99.90
2465;DHT22;1244;54.326;10.074;2022-08-14T06:52:35;22.90;99.90
2465;DHT22;1244;54.326;10.074;2022-08-14T06:55:00;23.00;99.90
2465;DHT22;1244;54.326;10.074;2022-08-14T06:57:37;23.10;99.90
2465;DHT22;1244;54.326;10.074;2022-08-14T07:00:26;23.10;99.90
2465;DHT22;1244;54.326;10.074;2022-08-14T07:02:53;23.30;99.90
2465;DHT22;1244;54.326;10.074;2022-08-14T07:05:37;23.30;99.90
2465;DHT22;1244;54.326;10.074;2022-08-14T07:08:17;23.40;99.90
2465;DHT22;1244;54.326;10.074;2022-08-14T07:10:45;23.40;99.90
2465;DHT22;1244;54.326;10.074;2022-08-14T07:13:11;23.50;99.90
2465;DHT22;1244;54.326;10.074;2022-08-14T07:15:37;23.60;99.90
2465;DHT22;1244;54.326;10.074;2022-08-14T07:18:03;23.50;99.90
2465;DHT22;1244;54.326;10.074;2022-08-14T07:20:30;23.50;99.90
2465;DHT22;1244;54.326;10.074;2022-08-14T07:22:55;23.50;99.90
2465;DHT22;1244;54.326;10.074;2022-08-14T07:25:26;23.70;99.90
2465;DHT22;1244;54.326;10.074;2022-08-14T07:27:52;23.90;99.90
2465;DHT22;1244;54.326;10.074;2022-08-14T07:30:17;24.00;99.90
2465;DHT22;1244;54.326;10.074;2022-08-14T07:32:43;23.90;99.90
2465;DHT22;1244;54.326;10.074;2022-08-14T07:35:09;23.90;99.90
2465;DHT22;1244;54.326;10.074;2022-08-14T07:37:34;23.90;99.90
2465;DHT22;1244;54.326;10.074;2022-08-14T07:40:01;23.90;99.90
2465;DHT22;1244;54.326;10.074;2022-08-14T07:42:27;23.90;99.90
2465;DHT22;1244;54.326;10.074;2022-08-14T07:44:53;24.00;99.90
2465;DHT22;1244;54.326;10.074;2022-08-14T07:47:19;24.10;99.90
2465;DHT22;1244;54.326;10.074;2022-08-14T07:49:58;24.20;99.90
2465;DHT22;1244;54.326;10.074;2022-08-14T07:52:24;24.30;99.90
2465;DHT22;1244;54.326;10.074;2022-08-14T07:54:51;24.20;99.90
2465;DHT22;1244;54.326;10.074;2022-08-14T07:57:17;24.20;99.90
2465;DHT22;1244;54.326;10.074;2022-08-14T07:59:42;24.60;99.90
2465;DHT22;1244;54.326;10.074;2022-08-14T08:02:10;24.90;99.90
2465;DHT22;1244;54.326;10.074;2022-08-14T08:04:43;24.90;99.90
2465;DHT22;1244;54.326;10.074;2022-08-14T08:07:09;24.90;99.90
2465;DHT22;1244;54.326;10.074;2022-08-14T08:09:36;24.90;99.90
2465;DHT22;1244;54.326;10.074;2022-08-14T08:12:03;24.80;99.90
2465;DHT22;1244;54.326;10.074;2022-08-14T08:14:32;24.70;99.90
2465;DHT22;1244;54.326;10.074;2022-08-14T08:16:58;24.90;99.90
2465;DHT22;1244;54.326;10.074;2022-08-14T08:19:24;25.10;99.90
2465;DHT22;1244;54.326;10.074;2022-08-14T08:21:51;25.40;99.90
2465;DHT22;1244;54.326;10.074;2022-08-14T08:24:18;25.40;99.90
2465;DHT22;1244;54.326;10.074;2022-08-14T08:26:44;25.60;99.90
2465;DHT22;1244;54.326;10.074;2022-08-14T08:29:18;26.00;99.90
2465;DHT22;1244;54.326;10.074;2022-08-14T08:31:48;26.30;99.90
2465;DHT22;1244;54.326;10.074;2022-08-14T08:34:15;26.30;99.90
2465;DHT22;1244;54.326;10.074;2022-08-14T08:36:41;26.10;99.90
2465;DHT22;1244;54.326;10.074;2022-08-14T08:39:08;25.80;99.90
2465;DHT22;1244;54.326;10.074;2022-08-14T08:41:45;25.60;99.90
2465;DHT22;1244;54.326;10.074;2022-08-14T08:44:14;25.70;99.90
2465;DHT22;1244;54.326;10.074;2022-08-14T08:46:42;25.50;99.90
2465;DHT22;1244;54.326;10.074;2022-08-14T08:49:08;25.50;99.90
2465;DHT22;1244;54.326;10.074;2022-08-14T08:51:36;25.50;99.90
2465;DHT22;1244;54.326;10.074;2022-08-14T08:54:07;25.40;99.90
2465;DHT22;1244;54.326;10.074;2022-08-14T09:01:48;25.60;99.90
2465;DHT22;1244;54.326;10.074;2022-08-14T09:04:13;25.50;99.90
2465;DHT22;1244;54.326;10.074;2022-08-14T09:06:46;25.50;99.90
2465;DHT22;1244;54.326;10.074;2022-08-14T09:09:26;25.50;99.90
2465;DHT22;1244;54.326;10.074;2022-08-14T09:11:54;25.60;99.90
2465;DHT22;1244;54.326;10.074;2022-08-14T09:14:21;25.60;99.90
2465;DHT22;1244;54.326;10.074;2022-08-14T09:16:48;25.60;99.90
2465;DHT22;1244;54.326;10.074;2022-08-14T09:19:14;25.50;99.90
2465;DHT22;1244;54.326;10.074;2022-08-14T09:21:40;25.40;99.90
2465;DHT22;1244;54.326;10.074;2022-08-14T09:24:07;25.40;99.90
2465;DHT22;1244;54.326;10.074;2022-08-14T09:26:33;25.30;99.90
2465;DHT22;1244;54.326;10.074;2022-08-14T09:28:59;25.30;99.90
2465;DHT22;1244;54.326;10.074;2022-08-14T09:31:26;25.40;99.90
2465;DHT22;1244;54.326;10.074;2022-08-14T09:34:00;25.40;99.90
2465;DHT22;1244;54.326;10.074;2022-08-14T09:45:34;25.60;99.90
2465;DHT22;1244;54.326;10.074;2022-08-14T09:48:00;25.60;99.90
2465;DHT22;1244;54.326;10.074;2022-08-14T09:50:31;25.70;99.90
2465;DHT22;1244;54.326;10.074;2022-08-14T09:53:01;26.00;99.90
2465;DHT22;1244;54.326;10.074;2022-08-14T09:55:28;26.20;99.90
2465;DHT22;1244;54.326;10.074;2022-08-14T09:58:16;26.10;99.90
2465;DHT22;1244;54.326;10.074;2022-08-14T10:00:47;25.90;99.90
2465;DHT22;1244;54.326;10.074;2022-08-14T10:03:33;26.10;99.90
2465;DHT22;1244;54.326;10.074;2022-08-14T10:06:04;26.20;99.90
2465;DHT22;1244;54.326;10.074;2022-08-14T10:08:50;26.40;99.90
2465;DHT22;1244;54.326;10.074;2022-08-14T10:11:22;26.50;99.90
2465;DHT22;1244;54.326;10.074;2022-08-14T10:13:50;26.70;99.90
2465;DHT22;1244;54.326;10.074;2022-08-14T10:16:19;26.70;99.90
2465;DHT22;1244;54.326;10.074;2022-08-14T10:18:48;26.90;99.90
2465;DHT22;1244;54.326;10.074;2022-08-14T10:21:17;26.90;99.90
2465;DHT22;1244;54.326;10.074;2022-08-14T10:23:45;27.00;99.90
2465;DHT22;1244;54.326;10.074;2022-08-14T10:26:16;27.20;99.90
2465;DHT22;1244;54.326;10.074;2022-08-14T10:28:47;27.20;99.90
2465;DHT22;1244;54.326;10.074;2022-08-14T10:31:23;27.30;99.90
2465;DHT22;1244;54.326;10.074;2022-08-14T10:34:05;27.30;99.90
2465;DHT22;1244;54.326;10.074;2022-08-14T10:36:41;27.60;99.90
2465;DHT22;1244;54.326;10.074;2022-08-14T10:41:41;28.40;99.90
2465;DHT22;1244;54.326;10.074;2022-08-14T10:44:08;28.50;99.90
2465;DHT22;1244;54.326;10.074;2022-08-14T10:46:49;28.40;99.90
2465;DHT22;1244;54.326;10.074;2022-08-14T10:49:19;28.10;99.90
2465;DHT22;1244;54.326;10.074;2022-08-14T10:52:09;28.00;99.90
2465;DHT22;1244;54.326;10.074;2022-08-14T10:54:38;28.20;99.90
2465;DHT22;1244;54.326;10.074;2022-08-14T10:57:13;28.10;99.90
2465;DHT22;1244;54.326;10.074;2022-08-14T10:59:48;27.90;99.90
2465;DHT22;1244;54.326;10.074;2022-08-14T11:02:20;27.70;99.90
2465;DHT22;1244;54.326;10.074;2022-08-14T11:07:27;27.20;99.90
2465;DHT22;1244;54.326;10.074;2022-08-14T11:09:55;27.00;99.90
2465;DHT22;1244;54.326;10.074;2022-08-14T11:12:22;26.90;99.90
2465;DHT22;1244;54.326;10.074;2022-08-14T11:14:58;26.90;99.90
2465;DHT22;1244;54.326;10.074;2022-08-14T11:17:26;26.70;99.90
2465;DHT22;1244;54.326;10.074;2022-08-14T11:19:56;26.80;99.90
2465;DHT22;1244;54.326;10.074;2022-08-14T11:22:27;26.70;99.90
2465;DHT22;1244;54.326;10.074;2022-08-14T11:24:57;26.70;99.90
2465;DHT22;1244;54.326;10.074;2022-08-14T11:27:24;26.70;99.90
2465;DHT22;1244;54.326;10.074;2022-08-14T11:29:52;26.80;99.90
2465;DHT22;1244;54.326;10.074;2022-08-14T11:32:19;26.60;99.90
2465;DHT22;1244;54.326;10.074;2022-08-14T11:34:45;26.50;99.90
2465;DHT22;1244;54.326;10.074;2022-08-14T11:37:11;26.40;99.90
2465;DHT22;1244;54.326;10.074;2022-08-14T11:39:37;26.40;99.90
2465;DHT22;1244;54.326;10.074;2022-08-14T11:42:07;26.40;99.90
2465;DHT22;1244;54.326;10.074;2022-08-14T11:44:43;26.40;99.90
2465;DHT22;1244;54.326;10.074;2022-08-14T11:47:10;26.60;99.90
2465;DHT22;1244;54.326;10.074;2022-08-14T11:49:44;26.70;99.90
2465;DHT22;1244;54.326;10.074;2022-08-14T11:52:10;26.70;99.90
2465;DHT22;1244;54.326;10.074;2022-08-14T11:54:37;26.70;99.90
2465;DHT22;1244;54.326;10.074;2022-08-14T11:57:04;26.80;99.90
2465;DHT22;1244;54.326;10.074;2022-08-14T11:59:30;26.80;99.90
2465;DHT22;1244;54.326;10.074;2022-08-14T12:02:11;26.80;99.90
2465;DHT22;1244;54.326;10.074;2022-08-14T12:04:50;26.80;99.90
2465;DHT22;1244;54.326;10.074;2022-08-14T12:07:17;26.80;99.90
2465;DHT22;1244;54.326;10.074;2022-08-14T12:09:44;26.90;99.90
2465;DHT22;1244;54.326;10.074;2022-08-14T12:12:32;26.90;99.90
2465;DHT22;1244;54.326;10.074;2022-08-14T12:14:59;26.90;99.90
2465;DHT22;1244;54.326;10.074;2022-08-14T12:17:26;26.90;99.90
2465;DHT22;1244;54.326;10.074;2022-08-14T12:19:53;26.80;99.90
2465;DHT22;1244;54.326;10.074;2022-08-14T12:22:31;26.80;99.90
2465;DHT22;1244;54.326;10.074;2022-08-14T12:24:57;26.90;99.90
2465;DHT22;1244;54.326;10.074;2022-08-14T12:30:05;27.10;99.90
2465;DHT22;1244;54.326;10.074;2022-08-14T12:32:43;27.10;99.90
2465;DHT22;1244;54.326;10.074;2022-08-14T12:35:09;27.10;99.90
2465;DHT22;1244;54.326;10.074;2022-08-14T12:37:35;27.00;99.90
2465;DHT22;1244;54.326;10.074;2022-08-14T12:40:27;26.90;99.90
2465;DHT22;1244;54.326;10.074;2022-08-14T12:43:01;27.10;99.90
2465;DHT22;1244;54.326;10.074;2022-08-14T12:45:33;27.00;99.90
2465;DHT22;1244;54.326;10.074;2022-08-14T12:48:03;27.00;99.90
2465;DHT22;1244;54.326;10.074;2022-08-14T12:50:40;27.00;99.90
2465;DHT22;1244;54.326;10.074;2022-08-14T12:53:09;26.90;99.90
2465;DHT22;1244;54.326;10.074;2022-08-14T12:55:36;26.90;99.90
2465;DHT22;1244;54.326;10.074;2022-08-14T12:58:04;27.00;99.90
2465;DHT22;1244;54.326;10.074;2022-08-14T13:00:35;27.00;99.90
2465;DHT22;1244;54.326;10.074;2022-08-14T13:03:02;27.00;99.90
2465;DHT22;1244;54.326;10.074;2022-08-14T13:05:31;27.00;99.90
2465;DHT22;1244;54.326;10.074;2022-08-14T13:07:59;27.00;99.90
2465;DHT22;1244;54.326;10.074;2022-08-14T13:10:26;27.10;99.90
2465;DHT22;1244;54.326;10.074;2022-08-14T13:12:55;27.10;99.90
2465;DHT22;1244;54.326;10.074;2022-08-14T13:15:22;27.20;99.90
2465;DHT22;1244;54.326;10.074;2022-08-14T13:17:50;27.20;99.90
2465;DHT22;1244;54.326;10.074;2022-08-14T13:20:18;27.20;99.90
2465;DHT22;1244;54.326;10.074;2022-08-14T13:22:44;27.20;99.90
2465;DHT22;1244;54.326;10.074;2022-08-14T13:25:18;27.40;99.90
2465;DHT22;1244;54.326;10.074;2022-08-14T13:27:46;27.40;99.90
2465;DHT22;1244;54.326;10.074;2022-08-14T13:30:12;27.30;99.90
2465;DHT22;1244;54.326;10.074;2022-08-14T13:32:38;27.20;99.90
2465;DHT22;1244;54.326;10.074;2022-08-14T13:35:09;27.20;99.90
2465;DHT22;1244;54.326;10.074;2022-08-14T13:37:35;27.20;99.90
2465;DHT22;1244;54.326;10.074;2022-08-14T13:40:02;27.10;99.90
2465;DHT22;1244;54.326;10.074;2022-08-14T13:42:28;27.10;99.90
2465;DHT22;1244;54.326;10.074;2022-08-14T13:44:55;27.10;99.90
2465;DHT22;1244;54.326;10.074;2022-08-14T13:47:23;27.10;99.90
2465;DHT22;1244;54.326;10.074;2022-08-14T13:49:50;27.10;99.90
2465;DHT22;1244;54.326;10.074;2022-08-14T13:52:20;27.00;99.90
2465;DHT22;1244;54.326;10.074;2022-08-14T13:54:48;27.00;99.90
2465;DHT22;1244;54.326;10.074;2022-08-14T13:57:15;26.90;99.90
2465;DHT22;1244;54.326;10.074;2022-08-14T13:59:46;26.80;99.90
2465;DHT22;1244;54.326;10.074;2022-08-14T14:02:14;26.80;99.90
2465;DHT22;1244;54.326;10.074;2022-08-14T14:04:44;26.70;99.90
2465;DHT22;1244;54.326;10.074;2022-08-14T14:07:12;26.80;99.90
2465;DHT22;1244;54.326;10.074;2022-08-14T14:09:41;26.80;99.90
2465;DHT22;1244;54.326;10.074;2022-08-14T14:12:07;26.60;99.90
2465;DHT22;1244;54.326;10.074;2022-08-14T14:14:37;26.70;99.90
2465;DHT22;1244;54.326;10.074;2022-08-14T14:17:04;26.70;99.90
2465;DHT22;1244;54.326;10.074;2022-08-14T14:19:30;26.70;99.90
2465;DHT22;1244;54.326;10.074;2022-08-14T14:22:02;26.80;99.90
2465;DHT22;1244;54.326;10.074;2022-08-14T14:24:30;26.80;99.90
2465;DHT22;1244;54.326;10.074;2022-08-14T14:26:59;26.70;99.90
2465;DHT22;1244;54.326;10.074;2022-08-14T14:29:26;26.80;99.90
2465;DHT22;1244;54.326;10.074;2022-08-14T14:31:59;26.90;99.90
2465;DHT22;1244;54.326;10.074;2022-08-14T14:34:27;26.80;99.90
2465;DHT22;1244;54.326;10.074;2022-08-14T14:36:55;27.00;99.90
2465;DHT22;1244;54.326;10.074;2022-08-14T14:39:23;26.90;99.90
2465;DHT22;1244;54.326;10.074;2022-08-14T14:41:52;27.00;99.90
2465;DHT22;1244;54.326;10.074;2022-08-14T14:44:22;27.20;99.90
2465;DHT22;1244;54.326;10.074;2022-08-14T14:46:48;27.50;99.90
2465;DHT22;1244;54.326;10.074;2022-08-14T14:49:16;27.30;99.90
2465;DHT22;1244;54.326;10.074;2022-08-14T14:51:43;27.40;99.90
2465;DHT22;1244;54.326;10.074;2022-08-14T14:54:10;27.40;99.90
2465;DHT22;1244;54.326;10.074;2022-08-14T14:56:40;27.50;99.90
2465;DHT22;1244;54.326;10.074;2022-08-14T14:59:07;27.80;99.90
2465;DHT22;1244;54.326;10.074;2022-08-14T15:01:37;28.20;99.90
2465;DHT22;1244;54.326;10.074;2022-08-14T15:04:03;28.50;99.90
2465;DHT22;1244;54.326;10.074;2022-08-14T15:06:31;28.30;99.90
2465;DHT22;1244;54.326;10.074;2022-08-14T15:08:57;28.00;99.90
2465;DHT22;1244;54.326;10.074;2022-08-14T15:11:23;27.90;99.90
2465;DHT22;1244;54.326;10.074;2022-08-14T15:13:50;27.70;99.90
2465;DHT22;1244;54.326;10.074;2022-08-14T15:16:16;27.40;99.90
2465;DHT22;1244;54.326;10.074;2022-08-14T15:18:41;27.30;99.90
2465;DHT22;1244;54.326;10.074;2022-08-14T15:21:11;27.20;99.90
2465;DHT22;1244;54.326;10.074;2022-08-14T15:23:36;27.10;99.90
2465;DHT22;1244;54.326;10.074;2022-08-14T15:26:02;27.00;99.90
2465;DHT22;1244;54.326;10.074;2022-08-14T15:28:28;26.80;99.90
2465;DHT22;1244;54.326;10.074;2022-08-14T15:30:54;26.90;99.90
2465;DHT22;1244;54.326;10.074;2022-08-14T15:33:20;26.70;99.90
2465;DHT22;1244;54.326;10.074;2022-08-14T15:36:06;26.70;99.90
2465;DHT22;1244;54.326;10.074;2022-08-14T15:38:32;26.50;99.90
2465;DHT22;1244;54.326;10.074;2022-08-14T15:40:58;26.50;99.90
2465;DHT22;1244;54.326;10.074;2022-08-14T15:43:30;26.50;99.90
2465;DHT22;1244;54.326;10.074;2022-08-14T15:46:01;26.40;99.90
2465;DHT22;1244;54.326;10.074;2022-08-14T15:48:27;26.30;99.90
2465;DHT22;1244;54.326;10.074;2022-08-14T15:50:54;26.30;99.90
2465;DHT22;1244;54.326;10.074;2022-08-14T15:53:19;26.30;99.90
2465;DHT22;1244;54.326;10.074;2022-08-14T15:55:52;26.10;99.90
2465;DHT22;1244;54.326;10.074;2022-08-14T15:58:24;26.10;99.90
2465;DHT22;1244;54.326;10.074;2022-08-14T16:00:51;26.00;99.90
2465;DHT22;1244;54.326;10.074;2022-08-14T16:03:36;26.00;99.90
2465;DHT22;1244;54.326;10.074;2022-08-14T16:06:04;26.00;99.90
2465;DHT22;1244;54.326;10.074;2022-08-14T16:08:30;25.80;99.90
2465;DHT22;1244;54.326;10.074;2022-08-14T16:11:00;25.80;99.90
2465;DHT22;1244;54.326;10.074;2022-08-14T16:13:27;25.80;99.90
2465;DHT22;1244;54.326;10.074;2022-08-14T16:15:54;25.80;99.90